sensor_id;sensor_type;location;lat;lon;timestamp;P1;durP1;ratioP1;P2;durP2;ratioP2
63008;SDS011;49099;28.428;-16.488;2023-04-06T00:00:26;23.90;;;4.30;;
63008;SDS011;49099;28.428;-16.488;2023-04-06T00:02:53;25.70;;;4.55;;
63008;SDS011;49099;28.428;-16.488;2023-04-06T00:05:20;26.25;;;4.80;;
63008;SDS011;49099;28.428;-16.488;2023-04-06T00:07:49;26.02;;;5.20;;
63008;SDS011;49099;28.428;-16.488;2023-04-06T00:10:16;26.92;;;4.65;;
63008;SDS011;49099;28.428;-16.488;2023-04-06T00:12:43;25.23;;;4.65;;
63008;SDS011;49099;28.428;-16.488;2023-04-06T00:15:11;23.63;;;4.05;;
63008;SDS011;49099;28.428;-16.488;2023-04-06T00:17:38;22.55;;;4.88;;
63008;SDS011;49099;28.428;-16.488;2023-04-06T00:20:05;23.33;;;4.90;;
63008;SDS011;49099;28.428;-16.488;2023-04-06T00:22:33;21.90;;;4.13;;
63008;SDS011;49099;28.428;-16.488;2023-04-06T00:25:00;25.05;;;4.35;;
63008;SDS011;49099;28.428;-16.488;2023-04-06T00:27:27;18.60;;;4.03;;
63008;SDS011;49099;28.428;-16.488;2023-04-06T00:29:55;21.23;;;4.72;;
63008;SDS011;49099;28.428;-16.488;2023-04-06T00:32:22;20.42;;;4.25;;
63008;SDS011;49099;28.428;-16.488;2023-04-06T00:34:49;22.02;;;3.65;;
63008;SDS011;49099;28.428;-16.488;2023-04-06T00:37:16;21.23;;;4.32;;
63008;SDS011;49099;28.428;-16.488;2023-04-06T00:39:44;24.73;;;4.00;;
63008;SDS011;49099;28.428;-16.488;2023-04-06T00:42:11;18.30;;;3.65;;
63008;SDS011;49099;28.428;-16.488;2023-04-06T00:44:42;28.95;;;4.57;;
63008;SDS011;49099;28.428;-16.488;2023-04-06T00:47:09;21.67;;;3.80;;
63008;SDS011;49099;28.428;-16.488;2023-04-06T00:49:36;18.90;;;3.72;;
63008;SDS011;49099;28.428;-16.488;2023-04-06T00:52:03;27.13;;;4.75;;
63008;SDS011;49099;28.428;-16.488;2023-04-06T00:54:31;19.35;;;4.00;;
63008;SDS011;49099;28.428;-16.488;2023-04-06T00:56:58;15.43;;;3.78;;
63008;SDS011;49099;28.428;-16.488;2023-04-06T00:59:26;26.92;;;4.95;;
63008;SDS011;49099;28.428;-16.488;2023-04-06T01:01:54;22.55;;;4.70;;
63008;SDS011;49099;28.428;-16.488;2023-04-06T01:04:22;26.23;;;4.03;;
63008;SDS011;49099;28.428;-16.488;2023-04-06T01:06:49;25.20;;;4.40;;
63008;SDS011;49099;28.428;-16.488;2023-04-06T01:09:17;23.05;;;4.07;;
63008;SDS011;49099;28.428;-16.488;2023-04-06T01:11:44;26.05;;;4.50;;
63008;SDS011;49099;28.428;-16.488;2023-04-06T01:14:11;20.63;;;4.35;;
63008;SDS011;49099;28.428;-16.488;2023-04-06T01:16:38;25.30;;;4.15;;
63008;SDS011;49099;28.428;-16.488;2023-04-06T01:19:09;23.95;;;4.72;;
63008;SDS011;49099;28.428;-16.488;2023-04-06T01:21:37;23.30;;;4.10;;
63008;SDS011;49099;28.428;-16.488;2023-04-06T01:24:05;22.08;;;4.07;;
63008;SDS011;49099;28.428;-16.488;2023-04-06T01:26:33;25.90;;;4.80;;
63008;SDS011;49099;28.428;-16.488;2023-04-06T01:29:02;20.80;;;3.75;;
63008;SDS011;49099;28.428;-16.488;2023-04-06T01:31:29;25.10;;;4.40;;
63008;SDS011;49099;28.428;-16.488;2023-04-06T01:33:57;21.88;;;4.15;;
63008;SDS011;49099;28.428;-16.488;2023-04-06T01:36:24;23.98;;;4.30;;
63008;SDS011;49099;28.428;-16.488;2023-04-06T01:38:52;23.13;;;3.85;;
63008;SDS011;49099;28.428;-16.488;2023-04-06T01:41:19;19.88;;;4.47;;
63008;SDS011;49099;28.428;-16.488;2023-04-06T01:43:47;24.73;;;3.70;;
63008;SDS011;49099;28.428;-16.488;2023-04-06T01:46:15;23.95;;;4.68;;
63008;SDS011;49099;28.428;-16.488;2023-04-06T01:48:42;23.17;;;4.15;;
63008;SDS011;49099;28.428;-16.488;2023-04-06T01:51:09;27.73;;;3.95;;
63008;SDS011;49099;28.428;-16.488;2023-04-06T01:53:37;29.40;;;4.50;;
63008;SDS011;49099;28.428;-16.488;2023-04-06T01:56:04;26.17;;;4.32;;
63008;SDS011;49099;28.428;-16.488;2023-04-06T01:58:31;28.10;;;4.50;;
63008;SDS011;49099;28.428;-16.488;2023-04-06T02:00:59;21.17;;;4.30;;
63008;SDS011;49099;28.428;-16.488;2023-04-06T02:03:26;29.17;;;4.97;;
63008;SDS011;49099;28.428;-16.488;2023-04-06T02:05:53;21.42;;;4.30;;
63008;SDS011;49099;28.428;-16.488;2023-04-06T02:08:21;22.77;;;4.55;;
63008;SDS011;49099;28.428;-16.488;2023-04-06T02:10:48;27.38;;;4.35;;
63008;SDS011;49099;28.428;-16.488;2023-04-06T02:13:15;29.75;;;4.30;;
63008;SDS011;49099;28.428;-16.488;2023-04-06T02:15:42;23.25;;;4.13;;
63008;SDS011;49099;28.428;-16.488;2023-04-06T02:18:09;29.08;;;4.70;;
63008;SDS011;49099;28.428;-16.488;2023-04-06T02:20:36;25.75;;;4.95;;
63008;SDS011;49099;28.428;-16.488;2023-04-06T02:23:03;27.13;;;4.32;;
63008;SDS011;49099;28.428;-16.488;2023-04-06T02:25:31;29.50;;;5.28;;
63008;SDS011;49099;28.428;-16.488;2023-04-06T02:27:58;28.00;;;4.32;;
63008;SDS011;49099;28.428;-16.488;2023-04-06T02:30:25;19.38;;;3.80;;
63008;SDS011;49099;28.428;-16.488;2023-04-06T02:32:52;25.90;;;4.18;;
63008;SDS011;49099;28.428;-16.488;2023-04-06T02:35:19;22.88;;;4.05;;
63008;SDS011;49099;28.428;-16.488;2023-04-06T02:37:47;24.42;;;4.40;;
63008;SDS011;49099;28.428;-16.488;2023-04-06T02:40:14;19.15;;;3.53;;
63008;SDS011;49099;28.428;-16.488;2023-04-06T02:42:41;20.90;;;3.33;;
63008;SDS011;49099;28.428;-16.488;2023-04-06T02:45:08;22.27;;;3.75;;
63008;SDS011;49099;28.428;-16.488;2023-04-06T02:47:35;17.88;;;3.92;;
63008;SDS011;49099;28.428;-16.488;2023-04-06T02:50:03;24.67;;;4.50;;
63008;SDS011;49099;28.428;-16.488;2023-04-06T02:52:31;21.00;;;4.03;;
63008;SDS011;49099;28.428;-16.488;2023-04-06T02:54:58;22.05;;;4.32;;
63008;SDS011;49099;28.428;-16.488;2023-04-06T02:57:25;20.58;;;3.72;;
63008;SDS011;49099;28.428;-16.488;2023-04-06T02:59:53;26.48;;;4.50;;
63008;SDS011;49099;28.428;-16.488;2023-04-06T03:02:20;23.50;;;4.53;;
63008;SDS011;49099;28.428;-16.488;2023-04-06T03:04:47;19.95;;;4.00;;
63008;SDS011;49099;28.428;-16.488;2023-04-06T03:07:14;23.17;;;3.80;;
63008;SDS011;49099;28.428;-16.488;2023-04-06T03:09:41;20.20;;;3.85;;
63008;SDS011;49099;28.428;-16.488;2023-04-06T03:12:08;22.48;;;4.13;;
63008;SDS011;49099;28.428;-16.488;2023-04-06T03:14:36;28.50;;;3.92;;
63008;SDS011;49099;28.428;-16.488;2023-04-06T03:17:03;27.55;;;4.72;;
63008;SDS011;49099;28.428;-16.488;2023-04-06T03:19:30;20.88;;;4.20;;
63008;SDS011;49099;28.428;-16.488;2023-04-06T03:21:57;26.33;;;4.32;;
63008;SDS011;49099;28.428;-16.488;2023-04-06T03:24:24;28.52;;;4.60;;
63008;SDS011;49099;28.428;-16.488;2023-04-06T03:26:51;25.77;;;5.00;;
63008;SDS011;49099;28.428;-16.488;2023-04-06T03:29:19;25.95;;;4.50;;
63008;SDS011;49099;28.428;-16.488;2023-04-06T03:31:46;22.08;;;4.28;;
63008;SDS011;49099;28.428;-16.488;2023-04-06T03:34:16;20.20;;;3.75;;
63008;SDS011;49099;28.428;-16.488;2023-04-06T03:36:43;21.45;;;3.75;;
63008;SDS011;49099;28.428;-16.488;2023-04-06T03:39:13;23.35;;;4.10;;
63008;SDS011;49099;28.428;-16.488;2023-04-06T03:41:40;28.90;;;4.53;;
63008;SDS011;49099;28.428;-16.488;2023-04-06T03:44:07;26.58;;;3.97;;
63008;SDS011;49099;28.428;-16.488;2023-04-06T03:46:34;30.65;;;4.20;;
63008;SDS011;49099;28.428;-16.488;2023-04-06T03:49:02;22.20;;;3.92;;
63008;SDS011;49099;28.428;-16.488;2023-04-06T03:51:29;22.75;;;4.13;;
63008;SDS011;49099;28.428;-16.488;2023-04-06T03:53:56;24.30;;;4.40;;
63008;SDS011;49099;28.428;-16.488;2023-04-06T03:56:23;29.42;;;4.85;;
63008;SDS011;49099;28.428;-16.488;2023-04-06T03:58:50;25.42;;;4.97;;
63008;SDS011;49099;28.428;-16.488;2023-04-06T04:01:17;25.52;;;4.40;;
63008;SDS011;49099;28.428;-16.488;2023-04-06T04:03:45;26.40;;;4.53;;
63008;SDS011;49099;28.428;-16.488;2023-04-06T04:06:14;27.67;;;4.20;;
63008;SDS011;49099;28.428;-16.488;2023-04-06T04:08:41;23.33;;;4.00;;
63008;SDS011;49099;28.428;-16.488;2023-04-06T04:11:08;21.08;;;4.25;;
63008;SDS011;49099;28.428;-16.488;2023-04-06T04:13:36;21.85;;;4.22;;
63008;SDS011;49099;28.428;-16.488;2023-04-06T04:16:03;20.08;;;4.05;;
63008;SDS011;49099;28.428;-16.488;2023-04-06T04:18:30;26.55;;;4.13;;
63008;SDS011;49099;28.428;-16.488;2023-04-06T04:20:57;26.77;;;4.55;;
63008;SDS011;49099;28.428;-16.488;2023-04-06T04:23:25;24.30;;;4.32;;
63008;SDS011;49099;28.428;-16.488;2023-04-06T04:25:52;25.85;;;4.65;;
63008;SDS011;49099;28.428;-16.488;2023-04-06T04:28:19;27.45;;;3.90;;
63008;SDS011;49099;28.428;-16.488;2023-04-06T04:30:46;24.67;;;4.03;;
63008;SDS011;49099;28.428;-16.488;2023-04-06T04:33:13;23.33;;;4.55;;
63008;SDS011;49099;28.428;-16.488;2023-04-06T04:35:40;24.00;;;3.78;;
63008;SDS011;49099;28.428;-16.488;2023-04-06T04:38:07;29.98;;;4.85;;
63008;SDS011;49099;28.428;-16.488;2023-04-06T04:40:34;26.30;;;4.13;;
63008;SDS011;49099;28.428;-16.488;2023-04-06T04:43:02;18.30;;;3.85;;
63008;SDS011;49099;28.428;-16.488;2023-04-06T04:45:29;21.45;;;3.47;;
63008;SDS011;49099;28.428;-16.488;2023-04-06T04:47:56;18.45;;;3.30;;
63008;SDS011;49099;28.428;-16.488;2023-04-06T04:50:23;19.17;;;3.50;;
63008;SDS011;49099;28.428;-16.488;2023-04-06T04:52:51;21.67;;;4.28;;
63008;SDS011;49099;28.428;-16.488;2023-04-06T04:55:18;25.08;;;3.83;;
63008;SDS011;49099;28.428;-16.488;2023-04-06T04:57:45;24.00;;;3.72;;
63008;SDS011;49099;28.428;-16.488;2023-04-06T05:00:12;23.80;;;3.25;;
63008;SDS011;49099;28.428;-16.488;2023-04-06T05:02:40;15.60;;;3.25;;
63008;SDS011;49099;28.428;-16.488;2023-04-06T05:05:07;17.02;;;3.35;;
63008;SDS011;49099;28.428;-16.488;2023-04-06T05:07:35;19.15;;;3.30;;
63008;SDS011;49099;28.428;-16.488;2023-04-06T05:10:02;15.57;;;3.00;;
63008;SDS011;49099;28.428;-16.488;2023-04-06T05:12:29;17.58;;;2.92;;
63008;SDS011;49099;28.428;-16.488;2023-04-06T05:14:56;14.63;;;2.80;;
63008;SDS011;49099;28.428;-16.488;2023-04-06T05:17:24;14.77;;;2.88;;
63008;SDS011;49099;28.428;-16.488;2023-04-06T05:19:52;14.48;;;2.80;;
63008;SDS011;49099;28.428;-16.488;2023-04-06T05:22:19;11.77;;;2.70;;
63008;SDS011;49099;28.428;-16.488;2023-04-06T05:24:46;11.88;;;2.70;;
63008;SDS011;49099;28.428;-16.488;2023-04-06T05:27:14;15.65;;;2.60;;
63008;SDS011;49099;28.428;-16.488;2023-04-06T05:29:41;13.75;;;2.70;;
63008;SDS011;49099;28.428;-16.488;2023-04-06T05:32:08;10.68;;;2.70;;
63008;SDS011;49099;28.428;-16.488;2023-04-06T05:34:35;13.45;;;2.78;;
63008;SDS011;49099;28.428;-16.488;2023-04-06T05:37:03;17.55;;;3.05;;
63008;SDS011;49099;28.428;-16.488;2023-04-06T05:39:31;12.75;;;2.55;;
63008;SDS011;49099;28.428;-16.488;2023-04-06T05:41:58;17.00;;;2.67;;
63008;SDS011;49099;28.428;-16.488;2023-04-06T05:44:28;12.50;;;2.80;;
63008;SDS011;49099;28.428;-16.488;2023-04-06T05:46:55;15.70;;;2.80;;
63008;SDS011;49099;28.428;-16.488;2023-04-06T05:49:22;14.55;;;2.22;;
63008;SDS011;49099;28.428;-16.488;2023-04-06T05:51:49;11.32;;;2.28;;
63008;SDS011;49099;28.428;-16.488;2023-04-06T05:54:16;13.00;;;2.65;;
63008;SDS011;49099;28.428;-16.488;2023-04-06T05:56:43;14.73;;;2.40;;
63008;SDS011;49099;28.428;-16.488;2023-04-06T05:59:10;13.95;;;2.67;;
63008;SDS011;49099;28.428;-16.488;2023-04-06T06:01:38;14.05;;;2.92;;
63008;SDS011;49099;28.428;-16.488;2023-04-06T06:04:05;15.05;;;2.75;;
63008;SDS011;49099;28.428;-16.488;2023-04-06T06:06:32;14.80;;;3.17;;
63008;SDS011;49099;28.428;-16.488;2023-04-06T06:08:59;13.38;;;2.60;;
63008;SDS011;49099;28.428;-16.488;2023-04-06T06:11:27;11.60;;;2.45;;
63008;SDS011;49099;28.428;-16.488;2023-04-06T06:13:54;17.98;;;2.75;;
63008;SDS011;49099;28.428;-16.488;2023-04-06T06:16:21;17.63;;;2.45;;
63008;SDS011;49099;28.428;-16.488;2023-04-06T06:18:48;21.05;;;2.50;;
63008;SDS011;49099;28.428;-16.488;2023-04-06T06:21:16;15.32;;;2.53;;
63008;SDS011;49099;28.428;-16.488;2023-04-06T06:23:43;13.98;;;2.75;;
63008;SDS011;49099;28.428;-16.488;2023-04-06T06:26:10;13.68;;;2.50;;
63008;SDS011;49099;28.428;-16.488;2023-04-06T06:28:38;17.00;;;2.67;;
63008;SDS011;49099;28.428;-16.488;2023-04-06T06:31:05;13.68;;;2.55;;
63008;SDS011;49099;28.428;-16.488;2023-04-06T06:33:32;15.63;;;2.70;;
63008;SDS011;49099;28.428;-16.488;2023-04-06T06:35:59;10.82;;;2.58;;
63008;SDS011;49099;28.428;-16.488;2023-04-06T06:38:26;14.25;;;2.50;;
63008;SDS011;49099;28.428;-16.488;2023-04-06T06:40:54;12.82;;;2.70;;
63008;SDS011;49099;28.428;-16.488;2023-04-06T06:43:21;14.45;;;2.67;;
63008;SDS011;49099;28.428;-16.488;2023-04-06T06:45:49;16.40;;;3.15;;
63008;SDS011;49099;28.428;-16.488;2023-04-06T06:48:16;16.73;;;2.95;;
63008;SDS011;49099;28.428;-16.488;2023-04-06T06:50:43;12.25;;;3.15;;
63008;SDS011;49099;28.428;-16.488;2023-04-06T06:53:10;22.83;;;2.90;;
63008;SDS011;49099;28.428;-16.488;2023-04-06T06:55:38;16.25;;;3.28;;
63008;SDS011;49099;28.428;-16.488;2023-04-06T06:58:05;16.48;;;2.60;;
63008;SDS011;49099;28.428;-16.488;2023-04-06T07:00:32;17.30;;;3.00;;
63008;SDS011;49099;28.428;-16.488;2023-04-06T07:02:59;15.25;;;2.63;;
63008;SDS011;49099;28.428;-16.488;2023-04-06T07:05:27;16.33;;;2.30;;
63008;SDS011;49099;28.428;-16.488;2023-04-06T07:07:54;15.88;;;2.75;;
63008;SDS011;49099;28.428;-16.488;2023-04-06T07:10:22;12.43;;;2.78;;
63008;SDS011;49099;28.428;-16.488;2023-04-06T07:12:49;11.95;;;2.30;;
63008;SDS011;49099;28.428;-16.488;2023-04-06T07:15:18;15.18;;;2.40;;
63008;SDS011;49099;28.428;-16.488;2023-04-06T07:17:45;14.73;;;2.83;;
63008;SDS011;49099;28.428;-16.488;2023-04-06T07:20:12;12.27;;;2.33;;
63008;SDS011;49099;28.428;-16.488;2023-04-06T07:22:42;12.15;;;2.60;;
63008;SDS011;49099;28.428;-16.488;2023-04-06T07:25:10;9.77;;;2.30;;
63008;SDS011;49099;28.428;-16.488;2023-04-06T07:27:37;13.70;;;2.70;;
63008;SDS011;49099;28.428;-16.488;2023-04-06T07:30:04;16.30;;;2.70;;
63008;SDS011;49099;28.428;-16.488;2023-04-06T07:32:32;15.98;;;2.83;;
63008;SDS011;49099;28.428;-16.488;2023-04-06T07:35:01;11.75;;;2.42;;
63008;SDS011;49099;28.428;-16.488;2023-04-06T07:37:29;13.15;;;2.45;;
63008;SDS011;49099;28.428;-16.488;2023-04-06T07:39:56;13.38;;;2.50;;
63008;SDS011;49099;28.428;-16.488;2023-04-06T07:42:23;10.80;;;2.92;;
63008;SDS011;49099;28.428;-16.488;2023-04-06T07:44:50;16.98;;;2.55;;
63008;SDS011;49099;28.428;-16.488;2023-04-06T07:47:17;10.32;;;2.55;;
63008;SDS011;49099;28.428;-16.488;2023-04-06T07:49:44;15.05;;;2.42;;
63008;SDS011;49099;28.428;-16.488;2023-04-06T07:52:12;16.02;;;2.70;;
63008;SDS011;49099;28.428;-16.488;2023-04-06T07:54:40;15.98;;;3.28;;
63008;SDS011;49099;28.428;-16.488;2023-04-06T07:57:08;12.15;;;2.28;;
63008;SDS011;49099;28.428;-16.488;2023-04-06T07:59:35;16.70;;;2.85;;
63008;SDS011;49099;28.428;-16.488;2023-04-06T08:02:02;13.23;;;2.65;;
63008;SDS011;49099;28.428;-16.488;2023-04-06T08:04:29;13.10;;;2.40;;
63008;SDS011;49099;28.428;-16.488;2023-04-06T08:06:57;12.88;;;2.78;;
63008;SDS011;49099;28.428;-16.488;2023-04-06T08:09:24;14.05;;;2.55;;
63008;SDS011;49099;28.428;-16.488;2023-04-06T08:11:52;12.48;;;2.63;;
63008;SDS011;49099;28.428;-16.488;2023-04-06T08:14:19;9.75;;;1.90;;
63008;SDS011;49099;28.428;-16.488;2023-04-06T08:16:46;11.10;;;2.60;;
63008;SDS011;49099;28.428;-16.488;2023-04-06T08:19:13;14.77;;;2.67;;
63008;SDS011;49099;28.428;-16.488;2023-04-06T08:21:43;8.48;;;2.08;;
63008;SDS011;49099;28.428;-16.488;2023-04-06T08:24:12;14.55;;;3.08;;
63008;SDS011;49099;28.428;-16.488;2023-04-06T08:26:40;18.98;;;3.22;;
63008;SDS011;49099;28.428;-16.488;2023-04-06T08:29:08;11.73;;;2.72;;
63008;SDS011;49099;28.428;-16.488;2023-04-06T08:31:36;8.65;;;2.10;;
63008;SDS011;49099;28.428;-16.488;2023-04-06T08:34:03;10.63;;;1.92;;
63008;SDS011;49099;28.428;-16.488;2023-04-06T08:36:32;8.60;;;2.00;;
63008;SDS011;49099;28.428;-16.488;2023-04-06T08:39:00;10.68;;;2.40;;
63008;SDS011;49099;28.428;-16.488;2023-04-06T08:41:27;14.32;;;2.30;;
63008;SDS011;49099;28.428;-16.488;2023-04-06T08:43:59;11.57;;;2.42;;
63008;SDS011;49099;28.428;-16.488;2023-04-06T08:46:28;14.65;;;3.38;;
63008;SDS011;49099;28.428;-16.488;2023-04-06T08:48:57;14.05;;;3.05;;
63008;SDS011;49099;28.428;-16.488;2023-04-06T08:51:27;19.17;;;3.38;;
63008;SDS011;49099;28.428;-16.488;2023-04-06T08:53:58;21.80;;;3.30;;
63008;SDS011;49099;28.428;-16.488;2023-04-06T08:56:26;18.67;;;3.92;;
63008;SDS011;49099;28.428;-16.488;2023-04-06T08:58:55;12.43;;;2.90;;
63008;SDS011;49099;28.428;-16.488;2023-04-06T09:01:27;23.05;;;3.80;;
63008;SDS011;49099;28.428;-16.488;2023-04-06T09:03:55;27.23;;;4.45;;
63008;SDS011;49099;28.428;-16.488;2023-04-06T09:06:34;28.08;;;4.80;;
63008;SDS011;49099;28.428;-16.488;2023-04-06T09:09:03;30.15;;;4.78;;
63008;SDS011;49099;28.428;-16.488;2023-04-06T09:11:41;24.58;;;4.10;;
63008;SDS011;49099;28.428;-16.488;2023-04-06T09:14:15;30.65;;;4.72;;
63008;SDS011;49099;28.428;-16.488;2023-04-06T09:16:44;28.83;;;4.65;;
63008;SDS011;49099;28.428;-16.488;2023-04-06T09:19:12;28.30;;;4.82;;
63008;SDS011;49099;28.428;-16.488;2023-04-06T09:21:39;27.38;;;4.75;;
63008;SDS011;49099;28.428;-16.488;2023-04-06T09:24:07;28.50;;;5.22;;
63008;SDS011;49099;28.428;-16.488;2023-04-06T09:26:46;34.58;;;5.38;;
63008;SDS011;49099;28.428;-16.488;2023-04-06T09:29:24;29.30;;;4.65;;
63008;SDS011;49099;28.428;-16.488;2023-04-06T09:32:01;30.58;;;4.85;;
63008;SDS011;49099;28.428;-16.488;2023-04-06T09:34:38;26.98;;;4.97;;
63008;SDS011;49099;28.428;-16.488;2023-04-06T09:37:12;32.30;;;5.47;;
63008;SDS011;49099;28.428;-16.488;2023-04-06T09:39:43;28.70;;;5.45;;
63008;SDS011;49099;28.428;-16.488;2023-04-06T09:42:22;41.92;;;5.78;;
63008;SDS011;49099;28.428;-16.488;2023-04-06T09:44:51;31.73;;;5.43;;
63008;SDS011;49099;28.428;-16.488;2023-04-06T09:47:18;21.70;;;4.68;;
63008;SDS011;49099;28.428;-16.488;2023-04-06T09:49:55;31.90;;;5.63;;
63008;SDS011;49099;28.428;-16.488;2023-04-06T09:52:26;34.28;;;5.75;;
63008;SDS011;49099;28.428;-16.488;2023-04-06T09:54:59;29.63;;;5.47;;
63008;SDS011;49099;28.428;-16.488;2023-04-06T09:57:32;30.50;;;5.97;;
63008;SDS011;49099;28.428;-16.488;2023-04-06T10:00:07;43.03;;;7.50;;
63008;SDS011;49099;28.428;-16.488;2023-04-06T10:08:05;31.45;;;5.72;;
63008;SDS011;49099;28.428;-16.488;2023-04-06T10:10:38;38.10;;;5.68;;
63008;SDS011;49099;28.428;-16.488;2023-04-06T10:13:05;37.03;;;6.28;;
63008;SDS011;49099;28.428;-16.488;2023-04-06T10:15:34;23.00;;;4.47;;
63008;SDS011;49099;28.428;-16.488;2023-04-06T10:18:01;21.10;;;4.30;;
63008;SDS011;49099;28.428;-16.488;2023-04-06T10:26:21;35.08;;;6.45;;
63008;SDS011;49099;28.428;-16.488;2023-04-06T10:28:50;32.40;;;6.57;;
63008;SDS011;49099;28.428;-16.488;2023-04-06T10:31:25;47.15;;;6.75;;
63008;SDS011;49099;28.428;-16.488;2023-04-06T10:33:57;37.47;;;6.50;;
63008;SDS011;49099;28.428;-16.488;2023-04-06T10:36:27;30.70;;;5.93;;
63008;SDS011;49099;28.428;-16.488;2023-04-06T10:39:04;23.65;;;5.22;;
63008;SDS011;49099;28.428;-16.488;2023-04-06T10:41:37;30.95;;;5.18;;
63008;SDS011;49099;28.428;-16.488;2023-04-06T10:44:22;34.83;;;5.22;;
63008;SDS011;49099;28.428;-16.488;2023-04-06T10:46:54;34.90;;;6.50;;
63008;SDS011;49099;28.428;-16.488;2023-04-06T10:49:24;30.15;;;5.55;;
63008;SDS011;49099;28.428;-16.488;2023-04-06T10:51:53;31.00;;;5.80;;
63008;SDS011;49099;28.428;-16.488;2023-04-06T10:54:21;33.65;;;5.88;;
63008;SDS011;49099;28.428;-16.488;2023-04-06T10:56:51;36.63;;;6.03;;
63008;SDS011;49099;28.428;-16.488;2023-04-06T10:59:19;45.45;;;7.60;;
63008;SDS011;49099;28.428;-16.488;2023-04-06T11:01:48;30.15;;;5.82;;
63008;SDS011;49099;28.428;-16.488;2023-04-06T11:04:16;37.60;;;6.88;;
63008;SDS011;49099;28.428;-16.488;2023-04-06T11:06:48;30.00;;;5.55;;
63008;SDS011;49099;28.428;-16.488;2023-04-06T11:09:23;44.60;;;8.05;;
63008;SDS011;49099;28.428;-16.488;2023-04-06T11:11:55;37.60;;;6.05;;
63008;SDS011;49099;28.428;-16.488;2023-04-06T11:14:23;32.50;;;6.32;;
63008;SDS011;49099;28.428;-16.488;2023-04-06T11:16:53;28.17;;;5.18;;
63008;SDS011;49099;28.428;-16.488;2023-04-06T11:19:20;34.88;;;6.38;;
63008;SDS011;49099;28.428;-16.488;2023-04-06T11:21:48;28.75;;;6.10;;
63008;SDS011;49099;28.428;-16.488;2023-04-06T11:24:16;33.45;;;5.80;;
63008;SDS011;49099;28.428;-16.488;2023-04-06T11:26:49;34.55;;;5.70;;
63008;SDS011;49099;28.428;-16.488;2023-04-06T11:29:19;31.05;;;5.07;;
63008;SDS011;49099;28.428;-16.488;2023-04-06T11:31:49;35.53;;;5.93;;
63008;SDS011;49099;28.428;-16.488;2023-04-06T11:34:21;26.63;;;4.85;;
63008;SDS011;49099;28.428;-16.488;2023-04-06T11:36:59;29.05;;;5.18;;
63008;SDS011;49099;28.428;-16.488;2023-04-06T11:39:28;31.23;;;6.43;;
63008;SDS011;49099;28.428;-16.488;2023-04-06T11:42:01;26.98;;;4.97;;
63008;SDS011;49099;28.428;-16.488;2023-04-06T11:44:33;40.15;;;5.72;;
63008;SDS011;49099;28.428;-16.488;2023-04-06T11:47:09;26.80;;;4.75;;
63008;SDS011;49099;28.428;-16.488;2023-04-06T11:49:38;23.17;;;4.13;;
63008;SDS011;49099;28.428;-16.488;2023-04-06T11:52:20;36.90;;;5.75;;
63008;SDS011;49099;28.428;-16.488;2023-04-06T11:54:50;30.38;;;5.28;;
63008;SDS011;49099;28.428;-16.488;2023-04-06T11:57:19;23.80;;;4.93;;
63008;SDS011;49099;28.428;-16.488;2023-04-06T11:59:48;28.15;;;5.03;;
63008;SDS011;49099;28.428;-16.488;2023-04-06T12:02:15;31.63;;;5.18;;
63008;SDS011;49099;28.428;-16.488;2023-04-06T12:04:42;26.02;;;5.10;;
63008;SDS011;49099;28.428;-16.488;2023-04-06T12:07:09;30.77;;;5.13;;
63008;SDS011;49099;28.428;-16.488;2023-04-06T12:09:36;28.25;;;5.05;;
63008;SDS011;49099;28.428;-16.488;2023-04-06T12:12:05;24.90;;;4.53;;
63008;SDS011;49099;28.428;-16.488;2023-04-06T12:14:32;23.83;;;4.90;;
63008;SDS011;49099;28.428;-16.488;2023-04-06T12:16:59;21.88;;;4.47;;
63008;SDS011;49099;28.428;-16.488;2023-04-06T12:19:27;24.58;;;4.88;;
63008;SDS011;49099;28.428;-16.488;2023-04-06T12:21:56;27.75;;;4.53;;
63008;SDS011;49099;28.428;-16.488;2023-04-06T12:24:24;27.50;;;5.25;;
63008;SDS011;49099;28.428;-16.488;2023-04-06T12:26:52;26.33;;;4.78;;
63008;SDS011;49099;28.428;-16.488;2023-04-06T12:29:34;33.97;;;5.35;;
63008;SDS011;49099;28.428;-16.488;2023-04-06T12:32:02;30.95;;;5.78;;
63008;SDS011;49099;28.428;-16.488;2023-04-06T12:34:29;23.05;;;4.60;;
63008;SDS011;49099;28.428;-16.488;2023-04-06T12:36:56;30.42;;;5.38;;
63008;SDS011;49099;28.428;-16.488;2023-04-06T12:39:23;35.30;;;5.43;;
63008;SDS011;49099;28.428;-16.488;2023-04-06T12:41:52;33.15;;;5.40;;
63008;SDS011;49099;28.428;-16.488;2023-04-06T12:44:19;27.80;;;5.25;;
63008;SDS011;49099;28.428;-16.488;2023-04-06T12:46:47;33.63;;;5.20;;
63008;SDS011;49099;28.428;-16.488;2023-04-06T12:49:14;31.00;;;5.53;;
63008;SDS011;49099;28.428;-16.488;2023-04-06T12:51:43;31.27;;;5.72;;
63008;SDS011;49099;28.428;-16.488;2023-04-06T12:54:11;32.75;;;5.45;;
63008;SDS011;49099;28.428;-16.488;2023-04-06T12:56:38;30.58;;;5.88;;
63008;SDS011;49099;28.428;-16.488;2023-04-06T12:59:05;31.13;;;5.30;;
63008;SDS011;49099;28.428;-16.488;2023-04-06T13:01:32;28.92;;;5.22;;
63008;SDS011;49099;28.428;-16.488;2023-04-06T13:04:00;25.60;;;5.18;;
63008;SDS011;49099;28.428;-16.488;2023-04-06T13:06:27;31.13;;;5.35;;
63008;SDS011;49099;28.428;-16.488;2023-04-06T13:08:54;30.42;;;5.30;;
63008;SDS011;49099;28.428;-16.488;2023-04-06T13:11:22;30.30;;;5.07;;
63008;SDS011;49099;28.428;-16.488;2023-04-06T13:13:53;32.83;;;5.68;;
63008;SDS011;49099;28.428;-16.488;2023-04-06T13:16:20;26.77;;;4.90;;
63008;SDS011;49099;28.428;-16.488;2023-04-06T13:18:48;32.33;;;5.70;;
63008;SDS011;49099;28.428;-16.488;2023-04-06T13:21:15;29.33;;;5.50;;
63008;SDS011;49099;28.428;-16.488;2023-04-06T13:23:43;27.33;;;6.30;;
63008;SDS011;49099;28.428;-16.488;2023-04-06T13:26:10;21.50;;;4.78;;
63008;SDS011;49099;28.428;-16.488;2023-04-06T13:28:37;22.10;;;4.85;;
63008;SDS011;49099;28.428;-16.488;2023-04-06T13:31:05;20.13;;;4.35;;
63008;SDS011;49099;28.428;-16.488;2023-04-06T13:33:33;22.95;;;4.53;;
63008;SDS011;49099;28.428;-16.488;2023-04-06T13:36:01;20.35;;;4.20;;
63008;SDS011;49099;28.428;-16.488;2023-04-06T13:38:29;27.73;;;4.40;;
63008;SDS011;49099;28.428;-16.488;2023-04-06T13:40:56;25.42;;;5.00;;
63008;SDS011;49099;28.428;-16.488;2023-04-06T13:43:24;31.40;;;4.90;;
63008;SDS011;49099;28.428;-16.488;2023-04-06T13:45:54;21.38;;;4.45;;
63008;SDS011;49099;28.428;-16.488;2023-04-06T13:48:22;20.45;;;4.30;;
63008;SDS011;49099;28.428;-16.488;2023-04-06T13:50:49;32.95;;;5.45;;
63008;SDS011;49099;28.428;-16.488;2023-04-06T13:53:17;26.05;;;5.22;;
63008;SDS011;49099;28.428;-16.488;2023-04-06T13:55:51;21.08;;;4.43;;
63008;SDS011;49099;28.428;-16.488;2023-04-06T13:58:23;29.65;;;4.95;;
63008;SDS011;49099;28.428;-16.488;2023-04-06T14:00:50;25.92;;;4.85;;
63008;SDS011;49099;28.428;-16.488;2023-04-06T14:03:18;27.35;;;5.00;;
63008;SDS011;49099;28.428;-16.488;2023-04-06T14:05:46;26.17;;;4.80;;
63008;SDS011;49099;28.428;-16.488;2023-04-06T14:08:13;29.20;;;4.85;;
63008;SDS011;49099;28.428;-16.488;2023-04-06T14:10:40;20.55;;;4.60;;
63008;SDS011;49099;28.428;-16.488;2023-04-06T14:13:08;31.73;;;5.38;;
63008;SDS011;49099;28.428;-16.488;2023-04-06T14:15:36;34.45;;;5.95;;
63008;SDS011;49099;28.428;-16.488;2023-04-06T14:18:03;30.50;;;5.55;;
63008;SDS011;49099;28.428;-16.488;2023-04-06T14:20:31;24.95;;;4.68;;
63008;SDS011;49099;28.428;-16.488;2023-04-06T14:23:02;22.65;;;4.78;;
63008;SDS011;49099;28.428;-16.488;2023-04-06T14:25:30;30.33;;;4.90;;